Tecumseh — WTW9257 — position and weather

sailwx.info

Track history (hours):
 
Tides and Currents Weather Stations Pressure Air Temp Water Temp Dewpoint Dewpoint Depression Visibility Wind Speed Wind Dir Waves Ship Positions

Tecumseh

Owner: Sause Bros. Inc., COOS BAY, OR. More information available from US FCC via Universal Licensing System and Coast Guard Vessel Documentation Center.

Last reported at 2017-Apr-25 08:22 UTC. Time now 2017-Apr-25 08:47 UTC.
Position N 33°45' W 120°12'.

Length 90 m; draft 5 m.

Type: Tow > 200 m length. MMSI: 367133160.

Date/timePositionNaut miles runAvg speedWind from/ knotsBaromVisibWave heightAir tempDewpointWater temp
2017-Apr-25 08:22N 33°45' W 120°12'3 7.9
2017-Apr-25 07:59N 33°46' W 120°16'4 8.4
2017-Apr-25 07:30N 33°47' W 120°21'4 8.6
2017-Apr-25 07:00N 33°48' W 120°26'4 8.3
2017-Apr-25 06:30N 33°49' W 120°30'4 7.7
2017-Apr-25 06:01N 33°50' W 120°35'4 7.8
2017-Apr-25 05:30N 33°51' W 120°39'4 7.7
2017-Apr-25 05:00N 33°52' W 120°44'4 8.0
2017-Apr-25 04:30N 33°54' W 120°48'4 8.4
2017-Apr-25 04:01N 33°57' W 120°52'4 8.4
2017-Apr-25 03:30N 34°00' W 120°55'4 8.1
2017-Apr-25 03:00N 34°03' W 120°59'4 8.1
2017-Apr-25 02:30N 34°06' W 121°02'4 8.2
2017-Apr-25 02:00N 34°09' W 121°05'4 8.3
2017-Apr-25 01:30N 34°12' W 121°09'4 8.5
2017-Apr-25 01:00N 34°15' W 121°12'4 8.5
2017-Apr-25 00:30N 34°19' W 121°15'4 9.0
2017-Apr-25 00:00N 34°23' W 121°17'4 8.9
2017-Apr-24 23:30N 34°27' W 121°20'4 8.7
2017-Apr-24 23:00N 34°31' W 121°22'4 8.6
2017-Apr-24 22:31N 34°34' W 121°25'4 8.3
2017-Apr-24 22:00N 34°38' W 121°27'4 8.5
2017-Apr-24 21:30N 34°42' W 121°29'4 8.4
2017-Apr-24 21:00N 34°46' W 121°32'4 8.4
2017-Apr-24 20:30N 34°49' W 121°34'6 8.3
2017-Apr-24 19:44N 34°55' W 121°38'2 8.0
2017-Apr-24 19:30N 34°57' W 121°39'29 8.0
2017-Apr-24 15:50N 35°23' W 121°56'3 8.2
2017-Apr-24 15:30N 35°25' W 121°57'4 8.4
2017-Apr-24 14:59N 35°29' W 122°00'4 8.6
2017-Apr-24 14:30N 35°32' W 122°03'8 8.5
2017-Apr-24 13:30N 35°40' W 122°08'4 8.4
2017-Apr-24 13:00N 35°43' W 122°10'4 8.6
2017-Apr-24 12:30N 35°47' W 122°12'4 8.6
2017-Apr-24 12:00N 35°51' W 122°15'4 8.6
2017-Apr-24 11:30N 35°55' W 122°17'4 8.8
2017-Apr-24 11:00N 35°59' W 122°19'4 8.7
2017-Apr-24 10:30N 36°03' W 122°21'4 8.8
2017-Apr-24 10:00N 36°07' W 122°24'4 8.6
2017-Apr-24 09:30N 36°11' W 122°27'4 8.3
2017-Apr-24 09:00N 36°14' W 122°29'4 8.1
2017-Apr-24 08:29N 36°18' W 122°31'4 8.1
2017-Apr-24 07:59N 36°22' W 122°33'4 8.2
2017-Apr-24 07:30N 36°25' W 122°35'4 8.4
2017-Apr-24 07:00N 36°29' W 122°38'4 8.4
2017-Apr-24 06:30N 36°33' W 122°40'4 8.2
2017-Apr-24 06:00N 36°37' W 122°42'5 8.0
2017-Apr-24 05:26N 36°41' W 122°44'4 8.0
2017-Apr-24 04:59N 36°44' W 122°46'4 8.1
2017-Apr-24 04:30N 36°48' W 122°48'4 8.1
2017-Apr-24 04:00N 36°51' W 122°50'4 8.2
2017-Apr-24 03:30N 36°55' W 122°52'5 7.9
2017-Apr-24 02:54N 36°59' W 122°55'28 8.4
2017-Apr-23 23:34N 37°26' W 123°04'1 8.5
2017-Apr-23 23:25N 37°28' W 123°04'4 8.2
2017-Apr-23 22:58N 37°31' W 123°04'5 7.3
2017-Apr-23 22:14N 37°36' W 123°01'4 8.0
2017-Apr-23 21:46N 37°38' W 122°57'2 8.0
2017-Apr-23 21:30N 37°39' W 122°55'3 6.4
2017-Apr-23 20:58N 37°41' W 122°51'4 7.5
2017-Apr-23 20:23N 37°43' W 122°47'4 7.0
2017-Apr-23 19:51N 37°46' W 122°43'2 6.6
2017-Apr-23 19:29N 37°46' W 122°40'3 6.9
2017-Apr-23 19:00N 37°47' W 122°36'4 7.8
2017-Apr-23 18:30N 37°48' W 122°32'4 8.3
2017-Apr-23 18:00N 37°50' W 122°27'3 6.8
2017-Apr-23 17:30N 37°53' W 122°25'1 2.8
2017-Apr-23 17:00N 37°55' W 122°26'1 1.9
2017-Apr-23 16:30N 37°55' W 122°25'1 1.3
2017-Apr-23 16:00N 37°55' W 122°25'0 0.2
2017-Apr-23 15:29N 37°55' W 122°25'0 0.0
2017-Apr-23 15:00N 37°55' W 122°25'0 0.0
2017-Apr-23 14:00N 37°55' W 122°25'0 0.0
2017-Apr-23 13:30N 37°55' W 122°25'0 0.0
2017-Apr-23 13:00N 37°55' W 122°25'0 0.0
2017-Apr-23 12:30N 37°55' W 122°25'0 0.0
2017-Apr-23 12:00N 37°55' W 122°25'0 0.0
2017-Apr-23 11:30N 37°55' W 122°25'0 0.0
2017-Apr-23 11:00N 37°55' W 122°25'0 0.0
2017-Apr-23 10:30N 37°55' W 122°25'0 0.0
2017-Apr-23 10:00N 37°55' W 122°25'0 0.0
2017-Apr-23 09:30N 37°55' W 122°25'0 0.0
2017-Apr-23 09:00N 37°55' W 122°25'0 0.0
2017-Apr-23 08:30N 37°55' W 122°25'0 0.0
2017-Apr-23 08:00N 37°55' W 122°25'0 0.0
2017-Apr-23 07:30N 37°55' W 122°25'0 0.0
2017-Apr-23 07:00N 37°55' W 122°25'0 0.0
2017-Apr-23 06:30N 37°55' W 122°25'0 0.0
2017-Apr-23 06:00N 37°55' W 122°25'0 0.0
2017-Apr-23 05:30N 37°55' W 122°25'0 0.0
2017-Apr-23 05:00N 37°55' W 122°25'0 0.0
2017-Apr-23 04:30N 37°55' W 122°25'0 0.0
2017-Apr-23 04:00N 37°55' W 122°25'0 0.0
2017-Apr-23 03:29N 37°55' W 122°25'0 0.0
2017-Apr-23 03:00N 37°55' W 122°25'0 0.0
2017-Apr-23 02:30N 37°55' W 122°25'0 0.0
2017-Apr-23 02:01N 37°55' W 122°25'0 0.2
2017-Apr-23 01:30N 37°55' W 122°25'0 0.1
2017-Apr-23 01:00N 37°55' W 122°25'0 0.2
2017-Apr-23 00:30N 37°55' W 122°25'1 1.7
2017-Apr-22 23:59N 37°55' W 122°26'0 0.1
2017-Apr-22 23:28N 37°55' W 122°26'0 0.0
2017-Apr-22 23:00N 37°55' W 122°26'0 0.1
2017-Apr-22 22:30N 37°55' W 122°26'1 1.6
2017-Apr-22 22:00N 37°54' W 122°26'4 7.7
2017-Apr-22 21:30N 37°51' W 122°24'4 8.5
2017-Apr-22 21:00N 37°47' W 122°23'0 0.5
2017-Apr-22 20:30N 37°46' W 122°23'0 0.0
2017-Apr-22 20:00N 37°46' W 122°23'0 0.0
2017-Apr-22 19:30N 37°46' W 122°23'0 0.0
2017-Apr-22 19:00N 37°46' W 122°23'0 0.0
2017-Apr-22 18:30N 37°46' W 122°23'0 0.0
2017-Apr-22 18:00N 37°46' W 122°23'0 0.0
2017-Apr-22 17:30N 37°46' W 122°23'0 0.0
2017-Apr-22 17:00N 37°46' W 122°23'0 0.0
2017-Apr-22 16:30N 37°46' W 122°23'0 0.0
2017-Apr-22 16:00N 37°46' W 122°23'0 0.0
2017-Apr-22 15:30N 37°46' W 122°23'0 0.0
2017-Apr-22 15:00N 37°46' W 122°23'0 0.0
2017-Apr-22 14:30N 37°46' W 122°23'0 0.0
2017-Apr-22 13:31N 37°46' W 122°23'0 0.0
2017-Apr-22 13:00N 37°46' W 122°23'0 0.0
2017-Apr-22 12:30N 37°46' W 122°23'0 0.0
2017-Apr-22 12:00N 37°46' W 122°23'0 0.0
2017-Apr-22 11:31N 37°46' W 122°23'0 0.0
2017-Apr-22 11:00N 37°46' W 122°23'0 0.0
2017-Apr-22 10:30N 37°46' W 122°23'0 0.0
2017-Apr-22 10:00N 37°46' W 122°23'0 0.0
2017-Apr-22 09:30N 37°46' W 122°23'0 0.0
2017-Apr-22 09:00N 37°46' W 122°23'0 0.0
2017-Apr-22 08:30N 37°46' W 122°23'0 0.0
2017-Apr-22 08:00N 37°46' W 122°23'0 0.0
2017-Apr-22 07:30N 37°46' W 122°23'0 0.0
2017-Apr-22 07:00N 37°46' W 122°23'0 0.0
2017-Apr-22 06:30N 37°46' W 122°23'0 0.0
2017-Apr-22 06:00N 37°46' W 122°23'0 0.0
2017-Apr-22 05:30N 37°46' W 122°23'0 0.0
2017-Apr-22 05:00N 37°46' W 122°23'0 0.0
2017-Apr-22 04:31N 37°46' W 122°23'0 0.0
2017-Apr-22 04:01N 37°46' W 122°23'0 0.0
2017-Apr-22 03:31N 37°46' W 122°23'0 0.0
2017-Apr-22 03:01N 37°46' W 122°23'0 0.0
2017-Apr-22 02:30N 37°46' W 122°23'1 1.2
2017-Apr-22 02:00N 37°46' W 122°22'0 0.1
2017-Apr-22 01:31N 37°46' W 122°22'3 6.0
2017-Apr-22 01:00N 37°49' W 122°24'4 7.1
2017-Apr-22 00:30N 37°49' W 122°28'4 7.1
2017-Apr-22 00:00N 37°47' W 122°32'3 6.0
2017-Apr-21 23:30N 37°46' W 122°36'3 6.6
2017-Apr-21 23:00N 37°46' W 122°40'4 8.7
2017-Apr-21 22:30N 37°46' W 122°45'4 8.1
2017-Apr-21 22:00N 37°48' W 122°50'4 8.9
2017-Apr-21 21:30N 37°50' W 122°55'4 8.8
2017-Apr-21 21:00N 37°52' W 123°00'5 9.2
2017-Apr-21 20:30N 37°54' W 123°05'4 8.8
2017-Apr-21 20:00N 37°57' W 123°10'5 9.3
2017-Apr-21 19:30N 37°60' W 123°14'5 9.6
2017-Apr-21 19:00N 38°04' W 123°18'510.0
2017-Apr-21 18:30N 38°07' W 123°22'5 9.7
2017-Apr-21 18:00N 38°10' W 123°28'5 9.6
2017-Apr-21 17:30N 38°12' W 123°33'5 9.6
2017-Apr-21 17:00N 38°14' W 123°38'5 9.4
2017-Apr-21 16:30N 38°17' W 123°43'5 9.3
2017-Apr-21 16:00N 38°21' W 123°47'5 9.3
2017-Apr-21 15:30N 38°24' W 123°51'4 8.6
2017-Apr-21 15:00N 38°27' W 123°55'4 8.6
2017-Apr-21 14:30N 38°30' W 123°58'  
2017-Apr-19 07:59N 45°14' W 124°37'4 7.7
2017-Apr-19 07:30N 45°18' W 124°36'4 7.8
2017-Apr-19 07:00N 45°22' W 124°36'4 7.9
2017-Apr-19 06:30N 45°26' W 124°35'4 7.9
2017-Apr-19 06:00N 45°30' W 124°35'4 8.3
2017-Apr-19 05:30N 45°34' W 124°34'4 8.5
2017-Apr-19 05:00N 45°38' W 124°34'4 8.6
2017-Apr-19 04:30N 45°42' W 124°33'4 8.5
2017-Apr-19 04:00N 45°46' W 124°33'4 8.4
2017-Apr-19 03:30N 45°51' W 124°32'4 8.2
2017-Apr-19 03:00N 45°55' W 124°32'4 7.9
2017-Apr-19 02:30N 45°59' W 124°30'4 7.9
2017-Apr-19 02:00N 46°01' W 124°26'4 7.8
2017-Apr-19 01:30N 46°04' W 124°22'4 7.8
2017-Apr-19 01:00N 46°07' W 124°18'4 7.0
2017-Apr-19 00:30N 46°10' W 124°15'3 6.1
2017-Apr-19 00:00N 46°11' W 124°11'4 7.7
2017-Apr-18 23:30N 46°14' W 124°07'4 8.0
2017-Apr-18 23:00N 46°15' W 124°02'5 9.9
2017-Apr-18 22:30N 46°12' W 123°56'5 9.7
2017-Apr-18 22:00N 46°12' W 123°49'510.4
2017-Apr-18 21:30N 46°14' W 123°43'611.1
2017-Apr-18 21:00N 46°15' W 123°35'510.7
2017-Apr-18 20:30N 46°15' W 123°27'611.6
2017-Apr-18 20:00N 46°10' W 123°25'611.7
2017-Apr-18 19:30N 46°09' W 123°16'612.2
2017-Apr-18 19:00N 46°11' W 123°08'612.1
2017-Apr-18 18:30N 46°08' W 123°01'612.0
2017-Apr-18 18:00N 46°05' W 122°54'611.9
2017-Apr-18 17:30N 45°59' W 122°50'611.4
2017-Apr-18 17:00N 45°54' W 122°48'611.5
2017-Apr-18 16:30N 45°48' W 122°47'611.4
2017-Apr-18 16:00N 45°42' W 122°46'4 8.8
2017-Apr-18 15:30N 45°38' W 122°47'4 7.7
2017-Apr-18 15:00N 45°35' W 122°45'1 1.2
2017-Apr-18 14:30N 45°34' W 122°44'0 0.0
2017-Apr-18 13:30N 45°34' W 122°44'2 3.4
2017-Apr-18 13:00N 45°33' W 122°42'0 0.1
2017-Apr-18 12:28N 45°33' W 122°42'0 0.0
2017-Apr-18 11:58N 45°33' W 122°42'0 0.0
2017-Apr-18 11:28N 45°33' W 122°42'0 0.0
2017-Apr-18 10:58N 45°33' W 122°42'0 0.0
2017-Apr-18 10:25N 45°33' W 122°42'0 0.0
2017-Apr-18 09:52N 45°33' W 122°42'0 0.0
2017-Apr-18 09:25N 45°33' W 122°42'0 0.0
2017-Apr-18 08:58N 45°33' W 122°42'0 0.0
2017-Apr-18 08:28N 45°33' W 122°42'0 0.0
2017-Apr-18 07:58N 45°33' W 122°42'0 0.0
2017-Apr-18 07:25N 45°33' W 122°42'0 0.0
2017-Apr-18 06:58N 45°33' W 122°42'0 0.0
2017-Apr-18 06:28N 45°33' W 122°42'0 0.0
2017-Apr-18 05:58N 45°33' W 122°42'0 0.0
2017-Apr-18 05:28N 45°33' W 122°42'0 0.0
2017-Apr-18 04:58N 45°33' W 122°42'0 0.0
2017-Apr-18 04:28N 45°33' W 122°42'0 0.0
2017-Apr-18 03:58N 45°33' W 122°42'0 0.0
2017-Apr-18 03:22N 45°33' W 122°42'0 0.0
2017-Apr-18 02:55N 45°33' W 122°42'0 0.0
2017-Apr-18 02:28N 45°33' W 122°42'0 0.0
2017-Apr-18 01:58N 45°33' W 122°42'0 0.0
2017-Apr-18 01:28N 45°33' W 122°42'0 0.0
2017-Apr-18 00:58N 45°33' W 122°42'0 0.0
2017-Apr-18 00:28N 45°33' W 122°42'0 0.0
2017-Apr-17 23:58N 45°33' W 122°42'0 0.0
2017-Apr-17 23:28N 45°33' W 122°42'0 0.0
2017-Apr-17 22:55N 45°33' W 122°42'0 0.0
2017-Apr-17 22:28N 45°33' W 122°42'0 0.0
2017-Apr-17 21:58N 45°33' W 122°42'0 0.0
2017-Apr-17 21:28N 45°33' W 122°42'0 0.0
2017-Apr-17 20:58N 45°33' W 122°42'0 0.0
2017-Apr-17 20:28N 45°33' W 122°42'0 0.0
2017-Apr-17 19:58N 45°33' W 122°42'0 0.0
2017-Apr-17 19:28N 45°33' W 122°42'0 0.0
2017-Apr-17 18:58N 45°33' W 122°42'0 0.0
2017-Apr-17 18:28N 45°33' W 122°42'0 0.0
2017-Apr-17 17:52N 45°33' W 122°42'0 0.0
2017-Apr-17 17:28N 45°33' W 122°42'0 0.0
2017-Apr-17 16:58N 45°33' W 122°42'0 0.0
2017-Apr-17 16:28N 45°33' W 122°42'0 0.0
2017-Apr-17 15:58N 45°33' W 122°42'0 0.0
2017-Apr-17 15:28N 45°33' W 122°42'0 0.0
2017-Apr-17 14:58N 45°33' W 122°42'0 0.0
2017-Apr-17 14:01N 45°33' W 122°42'0 0.0
2017-Apr-17 13:31N 45°33' W 122°42'0 0.0
2017-Apr-17 13:00N 45°33' W 122°42'0 0.0
2017-Apr-17 12:31N 45°33' W 122°42'2 3.4
2017-Apr-17 12:00N 45°34' W 122°44'0 0.0
2017-Apr-17 11:30N 45°34' W 122°44'0 0.6
2017-Apr-17 11:01N 45°34' W 122°44'0 0.8
2017-Apr-17 10:30N 45°34' W 122°44'1 1.9
2017-Apr-17 10:00N 45°35' W 122°46'2 3.6
2017-Apr-17 09:30N 45°36' W 122°47'2 3.8
2017-Apr-17 09:00N 45°38' W 122°47'3 5.0
2017-Apr-17 08:30N 45°41' W 122°47'2 4.8
2017-Apr-17 08:00N 45°43' W 122°46'2 4.8
2017-Apr-17 07:31N 45°46' W 122°46'2 4.7
2017-Apr-17 07:00N 45°48' W 122°47'2 4.9
2017-Apr-17 06:31N 45°50' W 122°47'3 5.1
2017-Apr-17 06:01N 45°53' W 122°48'3 5.2
2017-Apr-17 05:30N 45°55' W 122°48'3 5.3
2017-Apr-17 05:01N 45°58' W 122°49'3 5.5
2017-Apr-17 04:31N 46°00' W 122°51'3 5.4
2017-Apr-17 04:00N 46°03' W 122°53'3 5.3
2017-Apr-17 03:30N 46°05' W 122°54'3 5.4
2017-Apr-17 03:00N 46°06' W 122°58'3 5.8
2017-Apr-17 02:30N 46°08' W 123°01'3 5.6
2017-Apr-17 02:00N 46°10' W 123°04'3 5.6
2017-Apr-17 01:31N 46°11' W 123°08'3 5.5
2017-Apr-17 01:00N 46°11' W 123°12'3 5.5
2017-Apr-17 00:31N 46°09' W 123°15'4 7.3
2017-Apr-17 00:01N 46°09' W 123°20'4 7.2
2017-Apr-16 23:30N 46°10' W 123°25'4 7.4
2017-Apr-16 23:00N 46°14' W 123°26'4 7.4
2017-Apr-16 22:30N 46°16' W 123°30'4 8.4
2017-Apr-16 22:00N 46°15' W 123°35'4 8.4
2017-Apr-16 21:30N 46°15' W 123°42'5 9.1
2017-Apr-16 21:01N 46°13' W 123°47'4 8.1
2017-Apr-16 20:30N 46°11' W 123°53'4 7.1
2017-Apr-16 20:01N 46°13' W 123°57'3 6.6
2017-Apr-16 19:30N 46°15' W 124°01'3 5.6
2017-Apr-16 19:00N 46°15' W 124°05'3 6.6
2017-Apr-16 18:30N 46°13' W 124°09'3 6.5
2017-Apr-16 18:01N 46°11' W 124°13'2 4.5
2017-Apr-16 17:31N 46°09' W 124°15'3 6.5
2017-Apr-16 17:01N 46°07' W 124°18'3 6.1
2017-Apr-16 16:31N 46°05' W 124°21'3 6.7
2017-Apr-16 16:01N 46°02' W 124°24'3 6.5
2017-Apr-16 15:31N 45°60' W 124°27'3 6.2
2017-Apr-16 15:00N 45°58' W 124°30'3 5.8
2017-Apr-16 14:31N 45°55' W 124°32'6 6.4
2017-Apr-16 13:31N 45°48' W 124°32'3 6.2
2017-Apr-16 13:01N 45°45' W 124°33'3 6.2
2017-Apr-16 12:31N 45°42' W 124°33'3 6.2
2017-Apr-16 12:01N 45°39' W 124°34'3 6.2
2017-Apr-16 11:31N 45°36' W 124°34'3 6.2
2017-Apr-16 11:01N 45°33' W 124°34'3 6.1
2017-Apr-16 10:30N 45°30' W 124°35'3 6.4
2017-Apr-16 10:01N 45°27' W 124°35'3 6.4
2017-Apr-16 09:31N 45°24' W 124°36'4 7.3
2017-Apr-16 09:00N 45°20' W 124°36'4 8.1
2017-Apr-16 08:30N 45°16' W 124°37'4 8.0
2017-Apr-16 08:00N 45°12' W 124°37'4 7.8
2017-Apr-16 07:30N 45°08' W 124°38'4 7.6
2017-Apr-16 07:01N 45°04' W 124°38'4 7.4
2017-Apr-16 06:31N 45°01' W 124°38'4 7.5
2017-Apr-16 06:00N 44°57' W 124°39'4 7.8
2017-Apr-16 05:30N 44°53' W 124°39'4 7.6
2017-Apr-16 05:00N 44°49' W 124°40'4 7.3
2017-Apr-16 04:28N 44°45' W 124°40'  
Track history (hours):
 
Tides and Currents Weather Stations Pressure Air Temp Water Temp Dewpoint Dewpoint Depression Visibility Wind Speed Wind Dir Waves Ship Positions

Tecumseh

Owner: Sause Bros. Inc., COOS BAY, OR. More information available from US FCC via Universal Licensing System and Coast Guard Vessel Documentation Center.

Last reported at 2017-Apr-25 08:22 UTC. Time now 2017-Apr-25 08:47 UTC.
Position N 33°45' W 120°12'.

Length 90 m; draft 5 m.

Type: Tow > 200 m length. MMSI: 367133160.

Date/timePositionNaut miles runAvg speedWind from/ knotsBaromVisibWave heightAir tempDewpointWater temp
2017-Apr-25 08:22N 33°45' W 120°12'3 7.9
2017-Apr-25 07:59N 33°46' W 120°16'4 8.4
2017-Apr-25 07:30N 33°47' W 120°21'4 8.6
2017-Apr-25 07:00N 33°48' W 120°26'4 8.3
2017-Apr-25 06:30N 33°49' W 120°30'4 7.7
2017-Apr-25 06:01N 33°50' W 120°35'4 7.8
2017-Apr-25 05:30N 33°51' W 120°39'4 7.7
2017-Apr-25 05:00N 33°52' W 120°44'4 8.0
2017-Apr-25 04:30N 33°54' W 120°48'4 8.4
2017-Apr-25 04:01N 33°57' W 120°52'4 8.4
2017-Apr-25 03:30N 34°00' W 120°55'4 8.1
2017-Apr-25 03:00N 34°03' W 120°59'4 8.1
2017-Apr-25 02:30N 34°06' W 121°02'4 8.2
2017-Apr-25 02:00N 34°09' W 121°05'4 8.3
2017-Apr-25 01:30N 34°12' W 121°09'4 8.5
2017-Apr-25 01:00N 34°15' W 121°12'4 8.5
2017-Apr-25 00:30N 34°19' W 121°15'4 9.0
2017-Apr-25 00:00N 34°23' W 121°17'4 8.9
2017-Apr-24 23:30N 34°27' W 121°20'4 8.7
2017-Apr-24 23:00N 34°31' W 121°22'4 8.6
2017-Apr-24 22:31N 34°34' W 121°25'4 8.3
2017-Apr-24 22:00N 34°38' W 121°27'4 8.5
2017-Apr-24 21:30N 34°42' W 121°29'4 8.4
2017-Apr-24 21:00N 34°46' W 121°32'4 8.4
2017-Apr-24 20:30N 34°49' W 121°34'6 8.3
2017-Apr-24 19:44N 34°55' W 121°38'2 8.0
2017-Apr-24 19:30N 34°57' W 121°39'29 8.0
2017-Apr-24 15:50N 35°23' W 121°56'3 8.2
2017-Apr-24 15:30N 35°25' W 121°57'4 8.4
2017-Apr-24 14:59N 35°29' W 122°00'4 8.6
2017-Apr-24 14:30N 35°32' W 122°03'8 8.5
2017-Apr-24 13:30N 35°40' W 122°08'4 8.4
2017-Apr-24 13:00N 35°43' W 122°10'4 8.6
2017-Apr-24 12:30N 35°47' W 122°12'4 8.6
2017-Apr-24 12:00N 35°51' W 122°15'4 8.6
2017-Apr-24 11:30N 35°55' W 122°17'4 8.8
2017-Apr-24 11:00N 35°59' W 122°19'4 8.7
2017-Apr-24 10:30N 36°03' W 122°21'4 8.8
2017-Apr-24 10:00N 36°07' W 122°24'4 8.6
2017-Apr-24 09:30N 36°11' W 122°27'4 8.3
2017-Apr-24 09:00N 36°14' W 122°29'4 8.1
2017-Apr-24 08:29N 36°18' W 122°31'4 8.1
2017-Apr-24 07:59N 36°22' W 122°33'4 8.2
2017-Apr-24 07:30N 36°25' W 122°35'4 8.4
2017-Apr-24 07:00N 36°29' W 122°38'4 8.4
2017-Apr-24 06:30N 36°33' W 122°40'4 8.2
2017-Apr-24 06:00N 36°37' W 122°42'5 8.0
2017-Apr-24 05:26N 36°41' W 122°44'4 8.0
2017-Apr-24 04:59N 36°44' W 122°46'4 8.1
2017-Apr-24 04:30N 36°48' W 122°48'4 8.1
2017-Apr-24 04:00N 36°51' W 122°50'4 8.2
2017-Apr-24 03:30N 36°55' W 122°52'5 7.9
2017-Apr-24 02:54N 36°59' W 122°55'28 8.4
2017-Apr-23 23:34N 37°26' W 123°04'1 8.5
2017-Apr-23 23:25N 37°28' W 123°04'4 8.2
2017-Apr-23 22:58N 37°31' W 123°04'5 7.3
2017-Apr-23 22:14N 37°36' W 123°01'4 8.0
2017-Apr-23 21:46N 37°38' W 122°57'2 8.0
2017-Apr-23 21:30N 37°39' W 122°55'3 6.4
2017-Apr-23 20:58N 37°41' W 122°51'4 7.5
2017-Apr-23 20:23N 37°43' W 122°47'4 7.0
2017-Apr-23 19:51N 37°46' W 122°43'2 6.6
2017-Apr-23 19:29N 37°46' W 122°40'3 6.9
2017-Apr-23 19:00N 37°47' W 122°36'4 7.8
2017-Apr-23 18:30N 37°48' W 122°32'4 8.3
2017-Apr-23 18:00N 37°50' W 122°27'3 6.8
2017-Apr-23 17:30N 37°53' W 122°25'1 2.8
2017-Apr-23 17:00N 37°55' W 122°26'1 1.9
2017-Apr-23 16:30N 37°55' W 122°25'1 1.3
2017-Apr-23 16:00N 37°55' W 122°25'0 0.2
2017-Apr-23 15:29N 37°55' W 122°25'0 0.0
2017-Apr-23 15:00N 37°55' W 122°25'0 0.0
2017-Apr-23 14:00N 37°55' W 122°25'0 0.0
2017-Apr-23 13:30N 37°55' W 122°25'0 0.0
2017-Apr-23 13:00N 37°55' W 122°25'0 0.0
2017-Apr-23 12:30N 37°55' W 122°25'0 0.0
2017-Apr-23 12:00N 37°55' W 122°25'0 0.0
2017-Apr-23 11:30N 37°55' W 122°25'0 0.0
2017-Apr-23 11:00N 37°55' W 122°25'0 0.0
2017-Apr-23 10:30N 37°55' W 122°25'0 0.0
2017-Apr-23 10:00N 37°55' W 122°25'0 0.0
2017-Apr-23 09:30N 37°55' W 122°25'0 0.0
2017-Apr-23 09:00N 37°55' W 122°25'0 0.0
2017-Apr-23 08:30N 37°55' W 122°25'0 0.0
2017-Apr-23 08:00N 37°55' W 122°25'0 0.0
2017-Apr-23 07:30N 37°55' W 122°25'0 0.0
2017-Apr-23 07:00N 37°55' W 122°25'0 0.0
2017-Apr-23 06:30N 37°55' W 122°25'0 0.0
2017-Apr-23 06:00N 37°55' W 122°25'0 0.0
2017-Apr-23 05:30N 37°55' W 122°25'0 0.0
2017-Apr-23 05:00N 37°55' W 122°25'0 0.0
2017-Apr-23 04:30N 37°55' W 122°25'0 0.0
2017-Apr-23 04:00N 37°55' W 122°25'0 0.0
2017-Apr-23 03:29N 37°55' W 122°25'0 0.0
2017-Apr-23 03:00N 37°55' W 122°25'0 0.0
2017-Apr-23 02:30N 37°55' W 122°25'0 0.0
2017-Apr-23 02:01N 37°55' W 122°25'0 0.2
2017-Apr-23 01:30N 37°55' W 122°25'0 0.1
2017-Apr-23 01:00N 37°55' W 122°25'0 0.2
2017-Apr-23 00:30N 37°55' W 122°25'1 1.7
2017-Apr-22 23:59N 37°55' W 122°26'0 0.1
2017-Apr-22 23:28N 37°55' W 122°26'0 0.0
2017-Apr-22 23:00N 37°55' W 122°26'0 0.1
2017-Apr-22 22:30N 37°55' W 122°26'1 1.6
2017-Apr-22 22:00N 37°54' W 122°26'4 7.7
2017-Apr-22 21:30N 37°51' W 122°24'4 8.5
2017-Apr-22 21:00N 37°47' W 122°23'0 0.5
2017-Apr-22 20:30N 37°46' W 122°23'0 0.0
2017-Apr-22 20:00N 37°46' W 122°23'0 0.0
2017-Apr-22 19:30N 37°46' W 122°23'0 0.0
2017-Apr-22 19:00N 37°46' W 122°23'0 0.0
2017-Apr-22 18:30N 37°46' W 122°23'0 0.0
2017-Apr-22 18:00N 37°46' W 122°23'0 0.0
2017-Apr-22 17:30N 37°46' W 122°23'0 0.0
2017-Apr-22 17:00N 37°46' W 122°23'0 0.0
2017-Apr-22 16:30N 37°46' W 122°23'0 0.0
2017-Apr-22 16:00N 37°46' W 122°23'0 0.0
2017-Apr-22 15:30N 37°46' W 122°23'0 0.0
2017-Apr-22 15:00N 37°46' W 122°23'0 0.0
2017-Apr-22 14:30N 37°46' W 122°23'0 0.0
2017-Apr-22 13:31N 37°46' W 122°23'0 0.0
2017-Apr-22 13:00N 37°46' W 122°23'0 0.0
2017-Apr-22 12:30N 37°46' W 122°23'0 0.0
2017-Apr-22 12:00N 37°46' W 122°23'0 0.0
2017-Apr-22 11:31N 37°46' W 122°23'0 0.0
2017-Apr-22 11:00N 37°46' W 122°23'0 0.0
2017-Apr-22 10:30N 37°46' W 122°23'0 0.0
2017-Apr-22 10:00N 37°46' W 122°23'0 0.0
2017-Apr-22 09:30N 37°46' W 122°23'0 0.0
2017-Apr-22 09:00N 37°46' W 122°23'0 0.0
2017-Apr-22 08:30N 37°46' W 122°23'0 0.0
2017-Apr-22 08:00N 37°46' W 122°23'0 0.0
2017-Apr-22 07:30N 37°46' W 122°23'0 0.0
2017-Apr-22 07:00N 37°46' W 122°23'0 0.0
2017-Apr-22 06:30N 37°46' W 122°23'0 0.0
2017-Apr-22 06:00N 37°46' W 122°23'0 0.0
2017-Apr-22 05:30N 37°46' W 122°23'0 0.0
2017-Apr-22 05:00N 37°46' W 122°23'0 0.0
2017-Apr-22 04:31N 37°46' W 122°23'0 0.0
2017-Apr-22 04:01N 37°46' W 122°23'0 0.0
2017-Apr-22 03:31N 37°46' W 122°23'0 0.0
2017-Apr-22 03:01N 37°46' W 122°23'0 0.0
2017-Apr-22 02:30N 37°46' W 122°23'1 1.2
2017-Apr-22 02:00N 37°46' W 122°22'0 0.1
2017-Apr-22 01:31N 37°46' W 122°22'3 6.0
2017-Apr-22 01:00N 37°49' W 122°24'4 7.1
2017-Apr-22 00:30N 37°49' W 122°28'4 7.1
2017-Apr-22 00:00N 37°47' W 122°32'3 6.0
2017-Apr-21 23:30N 37°46' W 122°36'3 6.6
2017-Apr-21 23:00N 37°46' W 122°40'4 8.7
2017-Apr-21 22:30N 37°46' W 122°45'4 8.1
2017-Apr-21 22:00N 37°48' W 122°50'4 8.9
2017-Apr-21 21:30N 37°50' W 122°55'4 8.8
2017-Apr-21 21:00N 37°52' W 123°00'5 9.2
2017-Apr-21 20:30N 37°54' W 123°05'4 8.8
2017-Apr-21 20:00N 37°57' W 123°10'5 9.3
2017-Apr-21 19:30N 37°60' W 123°14'5 9.6
2017-Apr-21 19:00N 38°04' W 123°18'510.0
2017-Apr-21 18:30N 38°07' W 123°22'5 9.7
2017-Apr-21 18:00N 38°10' W 123°28'5 9.6
2017-Apr-21 17:30N 38°12' W 123°33'5 9.6
2017-Apr-21 17:00N 38°14' W 123°38'5 9.4
2017-Apr-21 16:30N 38°17' W 123°43'5 9.3
2017-Apr-21 16:00N 38°21' W 123°47'5 9.3
2017-Apr-21 15:30N 38°24' W 123°51'4 8.6
2017-Apr-21 15:00N 38°27' W 123°55'4 8.6
2017-Apr-21 14:30N 38°30' W 123°58'  
2017-Apr-19 07:59N 45°14' W 124°37'4 7.7
2017-Apr-19 07:30N 45°18' W 124°36'4 7.8
2017-Apr-19 07:00N 45°22' W 124°36'4 7.9
2017-Apr-19 06:30N 45°26' W 124°35'4 7.9
2017-Apr-19 06:00N 45°30' W 124°35'4 8.3
2017-Apr-19 05:30N 45°34' W 124°34'4 8.5
2017-Apr-19 05:00N 45°38' W 124°34'4 8.6
2017-Apr-19 04:30N 45°42' W 124°33'4 8.5
2017-Apr-19 04:00N 45°46' W 124°33'4 8.4
2017-Apr-19 03:30N 45°51' W 124°32'4 8.2
2017-Apr-19 03:00N 45°55' W 124°32'4 7.9
2017-Apr-19 02:30N 45°59' W 124°30'4 7.9
2017-Apr-19 02:00N 46°01' W 124°26'4 7.8
2017-Apr-19 01:30N 46°04' W 124°22'4 7.8
2017-Apr-19 01:00N 46°07' W 124°18'4 7.0
2017-Apr-19 00:30N 46°10' W 124°15'3 6.1
2017-Apr-19 00:00N 46°11' W 124°11'4 7.7
2017-Apr-18 23:30N 46°14' W 124°07'4 8.0
2017-Apr-18 23:00N 46°15' W 124°02'5 9.9
2017-Apr-18 22:30N 46°12' W 123°56'5 9.7
2017-Apr-18 22:00N 46°12' W 123°49'510.4
2017-Apr-18 21:30N 46°14' W 123°43'611.1
2017-Apr-18 21:00N 46°15' W 123°35'510.7
2017-Apr-18 20:30N 46°15' W 123°27'611.6
2017-Apr-18 20:00N 46°10' W 123°25'611.7
2017-Apr-18 19:30N 46°09' W 123°16'612.2
2017-Apr-18 19:00N 46°11' W 123°08'612.1
2017-Apr-18 18:30N 46°08' W 123°01'612.0
2017-Apr-18 18:00N 46°05' W 122°54'611.9
2017-Apr-18 17:30N 45°59' W 122°50'611.4
2017-Apr-18 17:00N 45°54' W 122°48'611.5
2017-Apr-18 16:30N 45°48' W 122°47'611.4
2017-Apr-18 16:00N 45°42' W 122°46'4 8.8
2017-Apr-18 15:30N 45°38' W 122°47'4 7.7
2017-Apr-18 15:00N 45°35' W 122°45'1 1.2
2017-Apr-18 14:30N 45°34' W 122°44'0 0.0
2017-Apr-18 13:30N 45°34' W 122°44'2 3.4
2017-Apr-18 13:00N 45°33' W 122°42'0 0.1
2017-Apr-18 12:28N 45°33' W 122°42'0 0.0
2017-Apr-18 11:58N 45°33' W 122°42'0 0.0
2017-Apr-18 11:28N 45°33' W 122°42'0 0.0
2017-Apr-18 10:58N 45°33' W 122°42'0 0.0
2017-Apr-18 10:25N 45°33' W 122°42'0 0.0
2017-Apr-18 09:52N 45°33' W 122°42'0 0.0
2017-Apr-18 09:25N 45°33' W 122°42'0 0.0
2017-Apr-18 08:58N 45°33' W 122°42'0 0.0
2017-Apr-18 08:28N 45°33' W 122°42'0 0.0
2017-Apr-18 07:58N 45°33' W 122°42'0 0.0
2017-Apr-18 07:25N 45°33' W 122°42'0 0.0
2017-Apr-18 06:58N 45°33' W 122°42'0 0.0
2017-Apr-18 06:28N 45°33' W 122°42'0 0.0
2017-Apr-18 05:58N 45°33' W 122°42'0 0.0
2017-Apr-18 05:28N 45°33' W 122°42'0 0.0
2017-Apr-18 04:58N 45°33' W 122°42'0 0.0
2017-Apr-18 04:28N 45°33' W 122°42'0 0.0
2017-Apr-18 03:58N 45°33' W 122°42'0 0.0
2017-Apr-18 03:22N 45°33' W 122°42'0 0.0
2017-Apr-18 02:55N 45°33' W 122°42'0 0.0
2017-Apr-18 02:28N 45°33' W 122°42'0 0.0
2017-Apr-18 01:58N 45°33' W 122°42'0 0.0
2017-Apr-18 01:28N 45°33' W 122°42'0 0.0
2017-Apr-18 00:58N 45°33' W 122°42'0 0.0
2017-Apr-18 00:28N 45°33' W 122°42'0 0.0
2017-Apr-17 23:58N 45°33' W 122°42'0 0.0
2017-Apr-17 23:28N 45°33' W 122°42'0 0.0
2017-Apr-17 22:55N 45°33' W 122°42'0 0.0
2017-Apr-17 22:28N 45°33' W 122°42'0 0.0
2017-Apr-17 21:58N 45°33' W 122°42'0 0.0
2017-Apr-17 21:28N 45°33' W 122°42'0 0.0
2017-Apr-17 20:58N 45°33' W 122°42'0 0.0
2017-Apr-17 20:28N 45°33' W 122°42'0 0.0
2017-Apr-17 19:58N 45°33' W 122°42'0 0.0
2017-Apr-17 19:28N 45°33' W 122°42'0 0.0
2017-Apr-17 18:58N 45°33' W 122°42'0 0.0
2017-Apr-17 18:28N 45°33' W 122°42'0 0.0
2017-Apr-17 17:52N 45°33' W 122°42'0 0.0
2017-Apr-17 17:28N 45°33' W 122°42'0 0.0
2017-Apr-17 16:58N 45°33' W 122°42'0 0.0
2017-Apr-17 16:28N 45°33' W 122°42'0 0.0
2017-Apr-17 15:58N 45°33' W 122°42'0 0.0
2017-Apr-17 15:28N 45°33' W 122°42'0 0.0
2017-Apr-17 14:58N 45°33' W 122°42'0 0.0
2017-Apr-17 14:01N 45°33' W 122°42'0 0.0
2017-Apr-17 13:31N 45°33' W 122°42'0 0.0
2017-Apr-17 13:00N 45°33' W 122°42'0 0.0
2017-Apr-17 12:31N 45°33' W 122°42'2 3.4
2017-Apr-17 12:00N 45°34' W 122°44'0 0.0
2017-Apr-17 11:30N 45°34' W 122°44'0 0.6
2017-Apr-17 11:01N 45°34' W 122°44'0 0.8
2017-Apr-17 10:30N 45°34' W 122°44'1 1.9
2017-Apr-17 10:00N 45°35' W 122°46'2 3.6
2017-Apr-17 09:30N 45°36' W 122°47'2 3.8
2017-Apr-17 09:00N 45°38' W 122°47'3 5.0
2017-Apr-17 08:30N 45°41' W 122°47'2 4.8
2017-Apr-17 08:00N 45°43' W 122°46'2 4.8
2017-Apr-17 07:31N 45°46' W 122°46'2 4.7
2017-Apr-17 07:00N 45°48' W 122°47'2 4.9
2017-Apr-17 06:31N 45°50' W 122°47'3 5.1
2017-Apr-17 06:01N 45°53' W 122°48'3 5.2
2017-Apr-17 05:30N 45°55' W 122°48'3 5.3
2017-Apr-17 05:01N 45°58' W 122°49'3 5.5
2017-Apr-17 04:31N 46°00' W 122°51'3 5.4
2017-Apr-17 04:00N 46°03' W 122°53'3 5.3
2017-Apr-17 03:30N 46°05' W 122°54'3 5.4
2017-Apr-17 03:00N 46°06' W 122°58'3 5.8
2017-Apr-17 02:30N 46°08' W 123°01'3 5.6
2017-Apr-17 02:00N 46°10' W 123°04'3 5.6
2017-Apr-17 01:31N 46°11' W 123°08'3 5.5
2017-Apr-17 01:00N 46°11' W 123°12'3 5.5
2017-Apr-17 00:31N 46°09' W 123°15'4 7.3
2017-Apr-17 00:01N 46°09' W 123°20'4 7.2
2017-Apr-16 23:30N 46°10' W 123°25'4 7.4
2017-Apr-16 23:00N 46°14' W 123°26'4 7.4
2017-Apr-16 22:30N 46°16' W 123°30'4 8.4
2017-Apr-16 22:00N 46°15' W 123°35'4 8.4
2017-Apr-16 21:30N 46°15' W 123°42'5 9.1
2017-Apr-16 21:01N 46°13' W 123°47'4 8.1
2017-Apr-16 20:30N 46°11' W 123°53'4 7.1
2017-Apr-16 20:01N 46°13' W 123°57'3 6.6
2017-Apr-16 19:30N 46°15' W 124°01'3 5.6
2017-Apr-16 19:00N 46°15' W 124°05'3 6.6
2017-Apr-16 18:30N 46°13' W 124°09'3 6.5
2017-Apr-16 18:01N 46°11' W 124°13'2 4.5
2017-Apr-16 17:31N 46°09' W 124°15'3 6.5
2017-Apr-16 17:01N 46°07' W 124°18'3 6.1
2017-Apr-16 16:31N 46°05' W 124°21'3 6.7
2017-Apr-16 16:01N 46°02' W 124°24'3 6.5
2017-Apr-16 15:31N 45°60' W 124°27'3 6.2
2017-Apr-16 15:00N 45°58' W 124°30'3 5.8
2017-Apr-16 14:31N 45°55' W 124°32'6 6.4
2017-Apr-16 13:31N 45°48' W 124°32'3 6.2
2017-Apr-16 13:01N 45°45' W 124°33'3 6.2
2017-Apr-16 12:31N 45°42' W 124°33'3 6.2
2017-Apr-16 12:01N 45°39' W 124°34'3 6.2
2017-Apr-16 11:31N 45°36' W 124°34'3 6.2
2017-Apr-16 11:01N 45°33' W 124°34'3 6.1
2017-Apr-16 10:30N 45°30' W 124°35'3 6.4
2017-Apr-16 10:01N 45°27' W 124°35'3 6.4
2017-Apr-16 09:31N 45°24' W 124°36'4 7.3
2017-Apr-16 09:00N 45°20' W 124°36'4 8.1
2017-Apr-16 08:30N 45°16' W 124°37'4 8.0
2017-Apr-16 08:00N 45°12' W 124°37'4 7.8
2017-Apr-16 07:30N 45°08' W 124°38'4 7.6
2017-Apr-16 07:01N 45°04' W 124°38'4 7.4
2017-Apr-16 06:31N 45°01' W 124°38'4 7.5
2017-Apr-16 06:00N 44°57' W 124°39'4 7.8
2017-Apr-16 05:30N 44°53' W 124°39'4 7.6
2017-Apr-16 05:00N 44°49' W 124°40'4 7.3
2017-Apr-16 04:28N 44°45' W 124°40'  

Dump ship's entire track history